createdAt,value
2017-06-14T00:00:38.828Z,14.5
2017-06-14T00:01:38.018Z,14.5
2017-06-14T00:02:37.249Z,14.5
2017-06-14T00:03:36.478Z,14.5
2017-06-14T00:04:35.709Z,14.4
2017-06-14T00:05:34.818Z,14.4
2017-06-14T00:06:34.557Z,14.4
2017-06-14T00:07:33.671Z,14.4
2017-06-14T00:08:32.789Z,14.4
2017-06-14T00:09:32.179Z,14.3
2017-06-14T00:10:31.677Z,14.3
2017-06-14T00:11:30.917Z,14.3
2017-06-14T00:12:31.197Z,14.3
2017-06-14T00:13:29.186Z,14.2
2017-06-14T00:14:28.416Z,14.2
2017-06-14T00:16:26.816Z,14.2
2017-06-14T00:17:26.054Z,14.1
2017-06-14T00:18:25.780Z,14.1
2017-06-14T00:20:23.788Z,14
2017-06-14T00:21:23.527Z,14.1
2017-06-14T00:22:22.764Z,14
2017-06-14T00:23:22.000Z,13.9
2017-06-14T00:24:21.761Z,14
2017-06-14T00:25:20.369Z,13.9
2017-06-14T00:26:19.487Z,13.9
2017-06-14T00:27:18.996Z,13.9
2017-06-14T00:28:18.114Z,13.8
2017-06-14T00:29:17.343Z,13.9
2017-06-14T00:30:16.575Z,13.8
2017-06-14T00:31:15.805Z,13.8
2017-06-14T00:32:15.423Z,13.7
2017-06-14T00:33:14.679Z,13.7
2017-06-14T00:34:13.913Z,13.7
2017-06-14T00:35:13.146Z,13.7
2017-06-14T00:36:12.387Z,13.7
2017-06-14T00:36:42.814Z,13.7
2017-06-14T00:38:11.311Z,13.6
2017-06-14T00:39:10.039Z,13.6
2017-06-14T00:40:09.271Z,13.5
2017-06-14T00:41:08.503Z,13.6
2017-06-14T00:42:07.820Z,13.5
2017-06-14T00:43:06.939Z,13.5
2017-06-14T00:44:06.171Z,13.5
2017-06-14T00:46:04.940Z,13.5
2017-06-14T00:47:03.937Z,13.5
2017-06-14T00:48:03.252Z,13.4
2017-06-14T00:49:02.366Z,13.4
2017-06-14T00:50:01.554Z,13.4
2017-06-14T00:51:01.057Z,13.5
2017-06-14T00:52:00.204Z,13.4
2017-06-14T00:52:59.319Z,13.4
2017-06-14T00:53:58.552Z,13.5
2017-06-14T00:54:28.980Z,13.5
2017-06-14T00:55:00.107Z,13.5
2017-06-14T00:55:29.728Z,13.5
2017-06-14T00:56:00.266Z,13.5
2017-06-14T00:56:56.475Z,13.5
2017-06-14T00:57:55.590Z,13.5
2017-06-14T00:58:55.086Z,13.5
2017-06-14T00:59:54.197Z,13.5
2017-06-14T01:00:53.430Z,13.5
2017-06-14T01:01:52.817Z,13.6
2017-06-14T01:02:52.048Z,13.6
2017-06-14T01:04:50.235Z,13.6
2017-06-14T01:05:49.470Z,13.6
2017-06-14T01:06:48.607Z,13.6
2017-06-14T01:08:47.229Z,13.6
2017-06-14T01:09:46.459Z,13.5
2017-06-14T01:10:46.080Z,13.5
2017-06-14T01:11:45.313Z,13.5
2017-06-14T01:12:44.540Z,13.4
2017-06-14T01:13:43.657Z,13.4
2017-06-14T01:14:42.888Z,13.4
2017-06-14T01:15:41.999Z,13.4
2017-06-14T01:16:41.233Z,13.4
2017-06-14T01:18:39.857Z,13.3
2017-06-14T01:19:38.847Z,13.3
2017-06-14T01:20:38.078Z,13.2
2017-06-14T01:21:37.187Z,13.2
2017-06-14T01:22:36.926Z,13.2
2017-06-14T01:23:36.158Z,13.2
2017-06-14T01:24:35.397Z,13.2
2017-06-14T01:25:34.630Z,13.1
2017-06-14T01:26:33.628Z,13.1
2017-06-14T01:27:32.866Z,13.1
2017-06-14T01:28:32.099Z,13.1
2017-06-14T01:29:31.422Z,13.1
2017-06-14T01:30:30.655Z,13
2017-06-14T01:31:29.885Z,13
2017-06-14T01:32:29.116Z,13
2017-06-14T01:33:28.231Z,13
2017-06-14T01:34:27.475Z,13
2017-06-14T01:35:26.706Z,13
2017-06-14T01:36:25.945Z,12.9
2017-06-14T01:37:25.558Z,12.9
2017-06-14T01:38:24.792Z,12.9
2017-06-14T01:39:24.023Z,12.9
2017-06-14T01:40:23.253Z,12.9
2017-06-14T01:41:22.491Z,12.9
2017-06-14T01:43:20.605Z,13
2017-06-14T01:44:19.847Z,13
2017-06-14T01:45:19.465Z,13
2017-06-14T01:46:18.698Z,13.1
2017-06-14T01:47:17.699Z,13.1
2017-06-14T01:49:16.320Z,13.1
2017-06-14T01:50:15.554Z,13.1
2017-06-14T01:51:14.665Z,13.1
2017-06-14T01:52:13.772Z,13.2
2017-06-14T01:53:13.399Z,13.2
2017-06-14T01:54:12.564Z,13.3
2017-06-14T01:55:11.676Z,13.3
2017-06-14T01:56:10.912Z,13.4
2017-06-14T01:57:10.149Z,13.4
2017-06-14T01:58:09.376Z,13.4
2017-06-14T01:59:08.609Z,13.4
2017-06-14T02:00:07.844Z,13.4
2017-06-14T02:01:07.083Z,13.4
2017-06-14T02:02:06.082Z,13.4
2017-06-14T02:03:05.314Z,13.4
2017-06-14T02:04:04.550Z,13.4
2017-06-14T02:05:03.670Z,13.3
2017-06-14T02:06:03.296Z,13.3
2017-06-14T02:07:02.537Z,13.4
2017-06-14T02:08:01.651Z,13.3
2017-06-14T02:09:00.887Z,13.4
2017-06-14T02:10:00.120Z,13.4
2017-06-14T02:10:59.235Z,13.4
2017-06-14T02:11:58.470Z,13.3
2017-06-14T02:12:57.781Z,13.4
2017-06-14T02:13:56.900Z,13.4
2017-06-14T02:14:56.135Z,13.4
2017-06-14T02:15:55.361Z,13.4
2017-06-14T02:16:54.589Z,13.3
2017-06-14T02:17:54.208Z,13.3
2017-06-14T02:18:53.862Z,13.3
2017-06-14T02:19:52.595Z,13.3
2017-06-14T02:20:51.828Z,13.3
2017-06-14T02:21:51.059Z,13.3
2017-06-14T02:22:50.287Z,13.3
2017-06-14T02:23:49.282Z,13.3
2017-06-14T02:24:48.907Z,13.3
2017-06-14T02:25:47.721Z,13.3
2017-06-14T02:26:47.460Z,13.2
2017-06-14T02:27:46.698Z,13.3
2017-06-14T02:28:45.929Z,13.2
2017-06-14T02:29:45.049Z,13.2
2017-06-14T02:30:44.746Z,13.2
2017-06-14T02:31:43.364Z,13.2
2017-06-14T02:32:42.488Z,13.1
2017-06-14T02:33:41.992Z,13.1
2017-06-14T02:34:41.139Z,13.1
2017-06-14T02:35:40.373Z,13
2017-06-14T02:36:39.378Z,13
2017-06-14T02:37:38.617Z,13
2017-06-14T02:38:37.852Z,13
2017-06-14T02:39:37.093Z,13
2017-06-14T02:40:36.202Z,12.9
2017-06-14T02:41:35.946Z,12.9
2017-06-14T02:42:35.180Z,12.9
2017-06-14T02:43:34.411Z,12.9
2017-06-14T02:44:33.642Z,12.9
2017-06-14T02:45:33.451Z,12.8
2017-06-14T02:46:31.680Z,12.8
2017-06-14T02:47:30.907Z,12.8
2017-06-14T02:49:29.525Z,12.7
2017-06-14T02:50:28.753Z,12.7
2017-06-14T02:51:27.980Z,12.7
2017-06-14T02:52:27.199Z,12.6
2017-06-14T02:53:26.425Z,12.6
2017-06-14T02:54:25.646Z,12.6
2017-06-14T02:55:24.749Z,12.6
2017-06-14T02:56:23.981Z,12.6
2017-06-14T02:57:23.203Z,12.6
2017-06-14T02:58:22.432Z,12.6
2017-06-14T02:59:21.685Z,12.6
2017-06-14T03:00:20.906Z,12.5
2017-06-14T03:01:20.009Z,12.5
2017-06-14T03:02:19.613Z,12.5
2017-06-14T03:03:18.793Z,12.5
2017-06-14T03:04:17.895Z,12.4
2017-06-14T03:05:17.110Z,12.5
2017-06-14T03:06:16.335Z,12.4
2017-06-14T03:07:15.551Z,12.4
2017-06-14T03:08:15.156Z,12.4
2017-06-14T03:09:14.955Z,12.4
2017-06-14T03:10:13.168Z,12.3
2017-06-14T03:11:12.410Z,12.4
2017-06-14T03:12:11.626Z,12.3
2017-06-14T03:13:10.840Z,12.3
2017-06-14T03:14:10.208Z,12.3
2017-06-14T03:15:09.317Z,12.3
2017-06-14T03:16:08.420Z,12.2
2017-06-14T03:17:08.146Z,12.2
2017-06-14T03:18:07.365Z,12.2
2017-06-14T03:19:06.585Z,12.2
2017-06-14T03:20:05.684Z,12.2
2017-06-14T03:21:04.980Z,12.2
2017-06-14T03:22:04.083Z,12.2
2017-06-14T03:23:03.189Z,12.2
2017-06-14T03:24:02.980Z,12.2
2017-06-14T03:25:01.582Z,12.1
2017-06-14T03:26:00.811Z,12.2
2017-06-14T03:27:00.093Z,12.2
2017-06-14T03:27:59.367Z,12.2
2017-06-14T03:28:58.583Z,12.1
2017-06-14T03:29:57.804Z,12.1
2017-06-14T03:30:57.027Z,12.1
2017-06-14T03:31:56.806Z,12.1
2017-06-14T03:32:55.524Z,12.1
2017-06-14T03:33:54.744Z,12.1
2017-06-14T03:34:25.155Z,12.1
2017-06-14T03:34:55.836Z,12.1
2017-06-14T03:35:53.042Z,12.1
2017-06-14T03:36:52.262Z,12.1
2017-06-14T03:37:51.489Z,12.1
2017-06-14T03:38:50.429Z,12.1
2017-06-14T03:39:50.123Z,12.1
2017-06-14T03:40:49.345Z,12.2
2017-06-14T03:41:48.460Z,12.2
2017-06-14T03:42:48.255Z,12.1
2017-06-14T03:43:46.972Z,12.1
2017-06-14T03:44:46.074Z,12.2
2017-06-14T03:45:45.293Z,12.2
2017-06-14T03:46:44.516Z,12.2
2017-06-14T03:47:43.739Z,12.2
2017-06-14T03:48:42.722Z,12.2
2017-06-14T03:49:42.331Z,12.2
2017-06-14T03:50:41.494Z,12.2
2017-06-14T03:51:40.715Z,12.2
2017-06-14T03:52:39.940Z,12.3
2017-06-14T03:53:39.046Z,12.3
2017-06-14T03:54:38.056Z,12.2
2017-06-14T03:55:37.284Z,12.3
2017-06-14T03:56:36.452Z,12.2
2017-06-14T03:57:35.673Z,12.2
2017-06-14T03:58:34.897Z,12.2
2017-06-14T03:59:34.112Z,12.3
2017-06-14T04:00:33.334Z,12.2
2017-06-14T04:01:32.550Z,12.3
2017-06-14T04:02:31.773Z,12.3
2017-06-14T04:03:30.995Z,12.3
2017-06-14T04:04:30.214Z,12.3
2017-06-14T04:05:29.438Z,12.3
2017-06-14T04:06:28.664Z,12.4
2017-06-14T04:07:27.891Z,12.3
2017-06-14T04:08:26.997Z,12.4
2017-06-14T04:09:26.604Z,12.4
2017-06-14T04:10:25.822Z,12.5
2017-06-14T04:12:23.935Z,12.5
2017-06-14T04:13:23.159Z,12.5
2017-06-14T04:15:21.651Z,12.6
2017-06-14T04:16:20.875Z,12.6
2017-06-14T04:17:20.105Z,12.6
2017-06-14T04:18:19.332Z,12.6
2017-06-14T04:19:18.560Z,12.6
2017-06-14T04:20:17.783Z,12.7
2017-06-14T04:21:17.010Z,12.7
2017-06-14T04:22:16.231Z,12.7
2017-06-14T04:23:15.447Z,12.7
2017-06-14T04:24:14.677Z,12.7
2017-06-14T04:25:14.469Z,12.7
2017-06-14T04:26:13.191Z,12.8
2017-06-14T04:27:12.419Z,12.8
2017-06-14T04:28:12.221Z,12.8
2017-06-14T04:29:10.939Z,12.8
2017-06-14T04:30:10.160Z,12.8
2017-06-14T04:31:09.265Z,12.8
2017-06-14T04:32:08.491Z,12.8
2017-06-14T04:33:07.597Z,12.8
2017-06-14T04:34:06.701Z,12.8
2017-06-14T04:35:06.004Z,12.9
2017-06-14T04:36:05.108Z,12.9
2017-06-14T04:37:04.718Z,12.9
2017-06-14T04:38:03.949Z,12.9
2017-06-14T04:39:03.167Z,12.9
2017-06-14T04:40:02.270Z,12.9
2017-06-14T04:41:01.490Z,12.9
2017-06-14T04:42:00.592Z,12.9
2017-06-14T04:42:59.807Z,12.9
2017-06-14T04:43:59.474Z,12.9
2017-06-14T04:44:58.191Z,13
2017-06-14T04:45:57.236Z,12.9
2017-06-14T04:47:56.434Z,13
2017-06-14T04:48:55.596Z,13
2017-06-14T04:49:54.076Z,13
2017-06-14T04:50:53.797Z,13
2017-06-14T04:51:52.548Z,13
2017-06-14T04:52:52.271Z,13
2017-06-14T04:53:51.249Z,13
2017-06-14T04:54:50.235Z,13
2017-06-14T04:55:49.958Z,13
2017-06-14T04:56:49.059Z,13
2017-06-14T04:57:48.279Z,13
2017-06-14T04:58:47.499Z,13
2017-06-14T04:59:46.801Z,13
2017-06-14T05:00:46.026Z,13
2017-06-14T05:01:45.245Z,13
2017-06-14T05:02:44.467Z,13.1
2017-06-14T05:03:43.335Z,13.1
2017-06-14T05:04:42.943Z,13.1
2017-06-14T05:05:42.046Z,13
2017-06-14T05:06:41.279Z,13.1
2017-06-14T05:07:40.377Z,13.1
2017-06-14T05:08:39.597Z,13.1
2017-06-14T05:09:38.821Z,13.1
2017-06-14T05:10:38.039Z,13.1
2017-06-14T05:11:37.256Z,13.1
2017-06-14T05:12:36.476Z,13.1
2017-06-14T05:13:35.690Z,13.1
2017-06-14T05:14:34.908Z,13.1
2017-06-14T05:16:33.828Z,13.2
2017-06-14T05:17:32.548Z,13.4
2017-06-14T05:18:31.768Z,13.6
2017-06-14T05:19:30.993Z,13.6
2017-06-14T05:20:30.210Z,13.6
2017-06-14T05:21:29.811Z,13.7
2017-06-14T05:22:29.030Z,13.8
2017-06-14T05:23:28.253Z,13.8
2017-06-14T05:24:27.473Z,13.8
2017-06-14T05:25:26.580Z,13.8
2017-06-14T05:26:25.562Z,13.8
2017-06-14T05:27:25.050Z,13.8
2017-06-14T05:28:24.273Z,13.9
2017-06-14T05:29:23.492Z,14
2017-06-14T05:30:22.711Z,14.1
2017-06-14T05:31:21.817Z,14.1
2017-06-14T05:32:21.041Z,14.1
2017-06-14T05:33:20.297Z,14.1
2017-06-14T05:34:19.469Z,14.1
2017-06-14T05:35:18.763Z,14.1
2017-06-14T05:36:17.866Z,14.1
2017-06-14T05:37:17.592Z,14.1
2017-06-14T05:38:16.807Z,14.2
2017-06-14T05:39:16.029Z,14.3
2017-06-14T05:40:15.130Z,14.3
2017-06-14T05:41:14.356Z,14.3
2017-06-14T05:42:13.644Z,14.3
2017-06-14T05:43:12.791Z,14.3
2017-06-14T05:44:12.010Z,14.3
2017-06-14T05:45:11.229Z,14.4
2017-06-14T05:46:10.513Z,14.4
2017-06-14T05:47:10.206Z,14.5
2017-06-14T05:48:08.800Z,14.5
2017-06-14T05:49:08.406Z,14.6
2017-06-14T05:50:07.628Z,14.6
2017-06-14T05:51:06.735Z,14.6
2017-06-14T05:52:05.838Z,14.6
2017-06-14T05:53:05.122Z,14.6
2017-06-14T05:54:04.226Z,14.6
2017-06-14T05:55:03.893Z,14.7
2017-06-14T05:56:02.744Z,14.7
2017-06-14T05:57:01.965Z,14.7
2017-06-14T05:58:01.193Z,14.7
2017-06-14T05:59:00.677Z,14.8
2017-06-14T05:59:59.930Z,14.9
2017-06-14T06:00:59.159Z,14.9
2017-06-14T06:01:58.379Z,14.9
2017-06-14T06:02:57.483Z,14.9
2017-06-14T06:03:57.093Z,14.9
2017-06-14T06:04:56.192Z,14.9
2017-06-14T06:05:55.410Z,14.9
2017-06-14T06:07:53.897Z,15
2017-06-14T06:08:53.189Z,15
2017-06-14T06:09:52.407Z,15.1
2017-06-14T06:10:51.576Z,15.2
2017-06-14T06:11:50.798Z,15.1
2017-06-14T06:12:50.017Z,15.1
2017-06-14T06:13:49.237Z,15.1
2017-06-14T06:14:48.458Z,15.1
2017-06-14T06:15:47.744Z,15.1
2017-06-14T06:16:46.856Z,15.1
2017-06-14T06:17:46.576Z,15.1
2017-06-14T06:18:45.678Z,15.1
2017-06-14T06:19:44.966Z,15.1
2017-06-14T06:20:44.188Z,15.1
2017-06-14T06:21:43.403Z,15.1
2017-06-14T06:22:42.626Z,15.1
2017-06-14T06:23:41.848Z,15.2
2017-06-14T06:24:41.465Z,15.2
2017-06-14T06:25:40.577Z,15.2
2017-06-14T06:26:39.562Z,15.2
2017-06-14T06:27:39.170Z,15.2
2017-06-14T06:28:38.392Z,15.2
2017-06-14T06:29:37.611Z,15.2
2017-06-14T06:30:08.712Z,15.2
2017-06-14T06:30:38.739Z,15.3
2017-06-14T06:31:09.699Z,15.3
2017-06-14T06:32:35.102Z,15.3
2017-06-14T06:33:34.355Z,15.3
2017-06-14T06:34:33.569Z,15.3
2017-06-14T06:35:33.865Z,15.3
2017-06-14T06:36:32.581Z,15.3
2017-06-14T06:37:31.804Z,15.4
2017-06-14T06:38:30.909Z,15.4
2017-06-14T06:39:30.754Z,15.5
2017-06-14T06:40:29.477Z,15.5
2017-06-14T06:41:28.698Z,15.5
2017-06-14T06:42:27.994Z,15.5
2017-06-14T06:43:27.214Z,15.6
2017-06-14T06:44:26.434Z,15.6
2017-06-14T06:45:25.649Z,15.7
2017-06-14T06:46:24.873Z,15.6
2017-06-14T06:47:24.095Z,15.6
2017-06-14T06:48:23.318Z,15.7
2017-06-14T06:49:22.429Z,15.7
2017-06-14T06:50:22.043Z,15.6
2017-06-14T06:51:21.150Z,15.6
2017-06-14T06:52:20.372Z,15.7
2017-06-14T06:53:20.097Z,15.7
2017-06-14T06:54:19.206Z,15.7
2017-06-14T06:55:18.437Z,15.8
2017-06-14T06:56:17.544Z,15.8
2017-06-14T06:57:16.764Z,15.9
2017-06-14T06:58:15.877Z,15.9
2017-06-14T06:59:15.604Z,15.8
2017-06-14T07:00:14.882Z,15.9
2017-06-14T07:01:14.148Z,15.8
2017-06-14T07:02:13.373Z,15.8
2017-06-14T07:03:12.477Z,15.8
2017-06-14T07:04:12.261Z,15.8
2017-06-14T07:05:10.976Z,15.9
2017-06-14T07:06:10.588Z,15.8
2017-06-14T07:07:09.813Z,15.9
2017-06-14T07:09:08.372Z,15.9
2017-06-14T07:10:07.476Z,16
2017-06-14T07:11:06.703Z,15.9
2017-06-14T07:12:05.806Z,16
2017-06-14T07:13:05.467Z,16
2017-06-14T07:14:04.511Z,16
2017-06-14T07:15:04.125Z,16.1
2017-06-14T07:16:03.228Z,16
2017-06-14T07:17:02.514Z,16.1
2017-06-14T07:18:01.738Z,16.2
2017-06-14T07:19:01.001Z,16.2
2017-06-14T07:20:00.218Z,16.2
2017-06-14T07:20:59.325Z,16.3
2017-06-14T07:22:57.938Z,16.2
2017-06-14T07:23:57.659Z,16.3
2017-06-14T07:24:56.881Z,16.2
2017-06-14T07:25:55.902Z,16.2
2017-06-14T07:26:55.508Z,16.3
2017-06-14T07:27:54.621Z,16.3
2017-06-14T07:28:53.926Z,16.3
2017-06-14T07:29:53.025Z,16.3
2017-06-14T07:30:52.133Z,16.4
2017-06-14T07:31:51.739Z,16.4
2017-06-14T07:32:50.843Z,16.4
2017-06-14T07:33:50.065Z,16.4
2017-06-14T07:34:49.550Z,16.5
2017-06-14T07:35:48.654Z,16.5
2017-06-14T07:36:47.881Z,16.6
2017-06-14T07:37:47.607Z,16.6
2017-06-14T07:38:46.824Z,16.7
2017-06-14T07:39:46.505Z,16.7
2017-06-14T07:40:45.221Z,16.7
2017-06-14T07:41:15.634Z,16.7
2017-06-14T07:41:46.055Z,16.6
2017-06-14T07:42:43.764Z,16.6
2017-06-14T07:43:42.986Z,16.7
2017-06-14T07:44:42.209Z,16.7
2017-06-14T07:45:41.937Z,16.7
2017-06-14T07:46:41.035Z,16.7
2017-06-14T07:48:39.647Z,16.6
2017-06-14T07:49:38.750Z,16.6
2017-06-14T07:50:37.976Z,16.6
2017-06-14T07:51:37.704Z,16.6
2017-06-14T07:52:36.927Z,16.6
2017-06-14T07:53:36.149Z,16.6
2017-06-14T07:54:35.938Z,16.6
2017-06-14T07:55:34.657Z,16.6
2017-06-14T07:56:33.754Z,16.6
2017-06-14T07:57:33.481Z,16.6
2017-06-14T07:58:32.583Z,16.6
2017-06-14T07:59:31.808Z,16.7
2017-06-14T08:00:31.615Z,16.7
2017-06-14T08:01:30.248Z,16.7
2017-06-14T08:02:29.971Z,16.7
2017-06-14T08:03:29.188Z,16.8
2017-06-14T08:04:28.563Z,17
2017-06-14T08:05:27.854Z,17
2017-06-14T08:06:27.077Z,17.1
2017-06-14T08:07:26.306Z,17.1
2017-06-14T08:08:25.531Z,17.1
2017-06-14T08:09:24.748Z,16.9
2017-06-14T08:10:23.969Z,16.9
2017-06-14T08:11:23.461Z,17
2017-06-14T08:12:22.691Z,16.9
2017-06-14T08:13:21.913Z,16.9
2017-06-14T08:14:21.523Z,16.9
2017-06-14T08:15:20.746Z,17
2017-06-14T08:16:19.967Z,17
2017-06-14T08:17:19.199Z,17.1
2017-06-14T08:18:18.421Z,17.1
2017-06-14T08:19:17.641Z,17.1
2017-06-14T08:20:16.942Z,17.2
2017-06-14T08:21:16.557Z,17.2
2017-06-14T08:22:15.662Z,17.2
2017-06-14T08:23:14.885Z,17.3
2017-06-14T08:24:14.613Z,17.3
2017-06-14T08:25:13.843Z,17.3
2017-06-14T08:26:13.153Z,17.4
2017-06-14T08:27:12.412Z,17.4
2017-06-14T08:28:11.634Z,17.4
2017-06-14T08:29:10.734Z,17.4
2017-06-14T08:30:10.230Z,17.3
2017-06-14T08:31:09.339Z,17.3
2017-06-14T08:32:08.950Z,17.3
2017-06-14T08:33:08.171Z,17.3
2017-06-14T08:34:07.276Z,17.3
2017-06-14T08:35:07.030Z,17.4
2017-06-14T08:36:06.023Z,17.5
2017-06-14T08:37:05.242Z,17.5
2017-06-14T08:38:04.461Z,17.6
2017-06-14T08:39:04.069Z,17.5
2017-06-14T08:40:03.056Z,17.6
2017-06-14T08:41:02.789Z,17.7
2017-06-14T08:42:02.016Z,17.7
2017-06-14T08:43:01.234Z,17.8
2017-06-14T08:44:00.216Z,17.9
2017-06-14T08:44:59.936Z,18
2017-06-14T08:45:59.486Z,18
2017-06-14T08:46:30.096Z,18
2017-06-14T08:47:00.161Z,17.9
2017-06-14T08:47:30.455Z,17.9
2017-06-14T08:48:01.554Z,17.9
2017-06-14T08:48:32.050Z,17.9
2017-06-14T08:49:01.960Z,17.9
2017-06-14T08:49:32.489Z,17.9
2017-06-14T08:50:02.670Z,17.9
2017-06-14T08:50:56.180Z,17.9
2017-06-14T08:51:54.847Z,18
2017-06-14T08:52:54.578Z,18.1
2017-06-14T08:53:53.682Z,18.1
2017-06-14T08:54:52.897Z,18.1
2017-06-14T08:55:52.510Z,18
2017-06-14T08:56:51.727Z,17.9
2017-06-14T08:57:50.723Z,17.7
2017-06-14T08:58:50.332Z,17.8
2017-06-14T08:59:49.315Z,17.8
2017-06-14T09:00:48.927Z,17.8
2017-06-14T09:01:48.153Z,17.9
2017-06-14T09:02:47.876Z,17.9
2017-06-14T09:03:47.098Z,17.9
2017-06-14T09:04:46.207Z,17.9
2017-06-14T09:05:46.372Z,17.8
2017-06-14T09:06:45.095Z,17.7
2017-06-14T09:07:44.201Z,17.8
2017-06-14T09:08:43.366Z,17.7
2017-06-14T09:09:43.099Z,17.8
2017-06-14T09:10:42.324Z,17.8
2017-06-14T09:11:41.546Z,17.8
2017-06-14T09:12:40.766Z,17.9
2017-06-14T09:13:40.373Z,18
2017-06-14T09:15:38.980Z,18.1
2017-06-14T09:16:38.765Z,18.1
2017-06-14T09:17:37.431Z,18.2
2017-06-14T09:18:36.652Z,18.2
2017-06-14T09:19:36.378Z,18.2
2017-06-14T09:20:35.362Z,18.2
2017-06-14T09:21:34.849Z,18.2
2017-06-14T09:22:34.073Z,18.1
2017-06-14T09:23:33.300Z,18.1
2017-06-14T09:24:33.027Z,18
2017-06-14T09:25:32.247Z,17.9
2017-06-14T09:26:31.475Z,18
2017-06-14T09:27:30.699Z,18.2
2017-06-14T09:28:29.936Z,18.2
2017-06-14T09:29:29.675Z,18.3
2017-06-14T09:30:28.900Z,18.4
2017-06-14T09:31:28.125Z,18.4
2017-06-14T09:32:27.732Z,18.4
2017-06-14T09:33:26.955Z,18.5
2017-06-14T09:34:26.187Z,18.5
2017-06-14T09:35:25.412Z,18.7
2017-06-14T09:36:24.515Z,18.7
2017-06-14T09:37:24.003Z,18.7
2017-06-14T09:38:23.610Z,18.6
2017-06-14T09:39:22.828Z,18.6
2017-06-14T09:40:21.814Z,18.6
2017-06-14T09:41:21.195Z,18.6
2017-06-14T09:43:20.311Z,18.6
2017-06-14T09:44:19.537Z,18.7
2017-06-14T09:45:18.763Z,18.8
2017-06-14T09:46:18.489Z,18.8
2017-06-14T09:47:17.805Z,18.9
2017-06-14T09:48:17.023Z,18.9
2017-06-14T09:49:16.247Z,18.9
2017-06-14T09:50:15.541Z,18.8
2017-06-14T09:51:14.764Z,18.8
2017-06-14T09:52:14.489Z,18.9
2017-06-14T09:53:13.716Z,18.9
2017-06-14T09:54:12.821Z,18.9
2017-06-14T09:55:12.542Z,18.9
2017-06-14T09:56:11.651Z,18.9
2017-06-14T09:57:10.872Z,18.9
2017-06-14T09:58:10.236Z,18.8
2017-06-14T09:59:10.407Z,18.8
2017-06-14T10:00:09.003Z,18.8
2017-06-14T10:01:08.229Z,18.8
2017-06-14T10:02:07.837Z,18.8
2017-06-14T10:03:07.783Z,18.9
2017-06-14T10:04:06.382Z,18.9
2017-06-14T10:05:05.982Z,19.1
2017-06-14T10:06:05.004Z,19.1
2017-06-14T10:07:04.727Z,19.1
2017-06-14T10:08:03.946Z,19.1
2017-06-14T10:09:03.229Z,18.9
2017-06-14T10:10:02.837Z,18.9
2017-06-14T10:11:02.061Z,18.9
2017-06-14T10:12:01.292Z,19
2017-06-14T10:13:59.779Z,19
2017-06-14T10:14:59.498Z,19.1
2017-06-14T10:15:58.720Z,19.1
2017-06-14T10:16:57.940Z,19.2
2017-06-14T10:17:57.662Z,19.2
2017-06-14T10:18:56.895Z,19.2
2017-06-14T10:19:56.011Z,19.1
2017-06-14T10:20:55.738Z,19.1
2017-06-14T10:21:54.899Z,19.1
2017-06-14T10:22:54.122Z,19
2017-06-14T10:23:53.849Z,19.2
2017-06-14T10:24:53.070Z,19.2
2017-06-14T10:25:52.168Z,19.2
2017-06-14T10:26:52.468Z,19.2
2017-06-14T10:27:51.195Z,19.2
2017-06-14T10:28:50.299Z,19.3
2017-06-14T10:29:49.609Z,19.3
2017-06-14T10:30:49.341Z,19.3
2017-06-14T10:31:48.565Z,19.4
2017-06-14T10:32:47.668Z,19.4
2017-06-14T10:33:47.156Z,19.3
2017-06-14T10:34:46.763Z,19.3
2017-06-14T10:35:45.869Z,19.3
2017-06-14T10:36:45.473Z,19.3
2017-06-14T10:37:44.585Z,19.4
2017-06-14T10:38:43.692Z,19.4
2017-06-14T10:40:42.813Z,19.4
2017-06-14T10:41:42.039Z,19.5
2017-06-14T10:42:41.338Z,19.5
2017-06-14T10:43:41.057Z,19.5
2017-06-14T10:44:40.278Z,19.6
2017-06-14T10:45:39.494Z,19.5
2017-06-14T10:46:39.104Z,19.5
2017-06-14T10:47:38.320Z,19.6
2017-06-14T10:48:37.930Z,19.6
2017-06-14T10:49:37.146Z,19.6
2017-06-14T10:50:36.753Z,19.7
2017-06-14T10:51:35.738Z,19.7
2017-06-14T10:52:35.336Z,19.6
2017-06-14T10:53:34.557Z,19.6
2017-06-14T10:54:33.774Z,19.7
2017-06-14T10:55:34.062Z,19.8
2017-06-14T10:56:32.739Z,19.7
2017-06-14T10:57:31.967Z,19.8
2017-06-14T10:58:31.765Z,19.8
2017-06-14T10:59:30.985Z,19.8
2017-06-14T11:00:30.208Z,19.9
2017-06-14T11:01:29.433Z,19.8
2017-06-14T11:02:29.153Z,19.9
2017-06-14T11:03:28.376Z,20
2017-06-14T11:04:27.601Z,20
2017-06-14T11:05:27.332Z,20.2
2017-06-14T11:06:26.556Z,20.2
2017-06-14T11:07:25.657Z,20.1
2017-06-14T11:08:25.384Z,20.1
2017-06-14T11:09:24.612Z,20.2
2017-06-14T11:10:23.799Z,20.3
2017-06-14T11:11:23.531Z,20.4
2017-06-14T11:12:22.706Z,20.4
2017-06-14T11:13:22.312Z,20.4
2017-06-14T11:14:21.549Z,20.6
2017-06-14T11:15:21.269Z,20.8
2017-06-14T11:16:20.485Z,21
2017-06-14T11:17:20.091Z,21.1
2017-06-14T11:18:19.079Z,21.1
2017-06-14T11:19:18.801Z,20.8
2017-06-14T11:20:17.790Z,20.8
2017-06-14T11:21:17.285Z,21
2017-06-14T11:22:17.007Z,21.1
2017-06-14T11:23:16.305Z,21
2017-06-14T11:24:15.528Z,21.2
2017-06-14T11:25:15.252Z,21.3
2017-06-14T11:26:14.374Z,21.4
2017-06-14T11:27:13.595Z,21.6
2017-06-14T11:28:13.349Z,21.6
2017-06-14T11:29:12.578Z,21.7
2017-06-14T11:30:12.064Z,21.7
2017-06-14T11:31:11.281Z,21.8
2017-06-14T11:32:10.882Z,21.9
2017-06-14T11:33:10.369Z,21.5
2017-06-14T11:35:08.978Z,21.8
2017-06-14T11:36:08.198Z,22
2017-06-14T11:37:07.689Z,22.1
2017-06-14T11:38:07.410Z,22
2017-06-14T11:39:06.628Z,22
2017-06-14T11:40:05.728Z,21.9
2017-06-14T11:41:05.456Z,21.7
2017-06-14T11:42:04.556Z,22
2017-06-14T11:43:04.553Z,21.7
2017-06-14T11:44:03.657Z,21.7
2017-06-14T11:45:03.270Z,21.9
2017-06-14T11:46:02.762Z,22.1
2017-06-14T11:47:01.743Z,21.9
2017-06-14T11:48:01.466Z,21.9
2017-06-14T11:50:00.228Z,22.1
2017-06-14T11:50:59.453Z,22.1
2017-06-14T11:51:59.600Z,22.1
2017-06-14T11:52:58.389Z,22.1
2017-06-14T11:53:57.989Z,22.1
2017-06-14T11:54:57.203Z,22.3
2017-06-14T11:55:27.735Z,22.3
2017-06-14T11:55:58.268Z,22.5
2017-06-14T11:56:55.976Z,22.3
2017-06-14T11:57:55.700Z,22.4
2017-06-14T11:58:55.009Z,22.6
2017-06-14T11:59:54.618Z,22.1
2017-06-14T12:00:53.847Z,21.9
2017-06-14T12:01:53.459Z,22
2017-06-14T12:02:53.254Z,22.2
2017-06-14T12:03:52.355Z,22.1
2017-06-14T12:04:51.461Z,22.1
2017-06-14T12:05:51.068Z,22.3
2017-06-14T12:06:50.559Z,22.6
2017-06-14T12:08:49.166Z,22.6
2017-06-14T12:09:49.342Z,22.8
2017-06-14T12:10:48.443Z,22.8
2017-06-14T12:11:47.607Z,23
2017-06-14T12:13:46.732Z,22.7
2017-06-14T12:14:45.726Z,23
2017-06-14T12:15:45.332Z,22.6
2017-06-14T12:16:45.060Z,22.8
2017-06-14T12:17:44.312Z,22.7
2017-06-14T12:18:43.538Z,22.4
2017-06-14T12:20:42.536Z,22.8
2017-06-14T12:21:42.154Z,23
2017-06-14T12:22:41.768Z,23.1
2017-06-14T12:23:40.881Z,23.1
2017-06-14T12:24:40.485Z,23.1
2017-06-14T12:25:39.585Z,22.9
2017-06-14T12:26:39.305Z,22.8
2017-06-14T12:27:38.529Z,23.2
2017-06-14T12:28:38.137Z,23.3
2017-06-14T12:29:37.859Z,23.5
2017-06-14T12:30:36.962Z,23.4
2017-06-14T12:31:36.683Z,23.5
2017-06-14T12:32:35.797Z,23.5
2017-06-14T12:33:35.523Z,23.8
2017-06-14T12:34:34.634Z,23.7
2017-06-14T12:35:34.356Z,23.9
2017-06-14T12:36:34.077Z,24
2017-06-14T12:37:33.299Z,23.2
2017-06-14T12:38:03.891Z,23.2
2017-06-14T12:38:34.486Z,23.3
2017-06-14T12:39:05.580Z,23.3
2017-06-14T12:39:35.685Z,23.1
2017-06-14T12:40:31.772Z,23.2
2017-06-14T12:41:31.262Z,23.4
2017-06-14T12:42:30.710Z,23.7
2017-06-14T12:43:30.201Z,23.8
2017-06-14T12:44:29.313Z,23.6
2017-06-14T12:45:29.040Z,23.7
2017-06-14T12:47:27.916Z,24.2
2017-06-14T12:48:27.526Z,24.5
2017-06-14T12:49:26.750Z,24.6
2017-06-14T12:50:26.237Z,24.7
2017-06-14T12:51:25.963Z,24.4
2017-06-14T12:52:25.064Z,24.2
2017-06-14T12:54:24.179Z,24.2
2017-06-14T12:55:23.860Z,23.9
2017-06-14T12:56:23.078Z,24
2017-06-14T12:57:22.687Z,24.2
2017-06-14T12:58:21.906Z,24.1
2017-06-14T12:59:21.508Z,24.3
2017-06-14T13:00:21.234Z,24.4
2017-06-14T13:01:20.455Z,24.1
2017-06-14T13:02:20.186Z,24.1
2017-06-14T13:03:19.418Z,24.2
2017-06-14T13:04:19.034Z,24.4
2017-06-14T13:05:18.820Z,24.5
2017-06-14T13:06:18.622Z,24.5
2017-06-14T13:07:17.339Z,24.7
2017-06-14T13:08:17.066Z,24.7
2017-06-14T13:09:16.287Z,24.3
2017-06-14T13:10:16.011Z,24.1
2017-06-14T13:11:15.239Z,24
2017-06-14T13:12:14.860Z,23.8
2017-06-14T13:13:14.094Z,23.9
2017-06-14T13:14:13.707Z,23.8
2017-06-14T13:15:13.327Z,24.1
2017-06-14T13:16:12.635Z,24.1
2017-06-14T13:17:12.364Z,24
2017-06-14T13:18:11.589Z,24.1
2017-06-14T13:19:11.314Z,24.2
2017-06-14T13:20:10.547Z,24.3
2017-06-14T13:21:10.275Z,24.3
2017-06-14T13:22:09.500Z,24.4
2017-06-14T13:23:09.231Z,24.5
2017-06-14T13:24:08.455Z,24.5
2017-06-14T13:25:08.186Z,24.7
2017-06-14T13:26:07.443Z,24.7
2017-06-14T13:27:07.168Z,24.7
2017-06-14T13:28:06.770Z,25
2017-06-14T13:29:05.820Z,25.1
2017-06-14T13:30:05.193Z,25.5